createdAt,value
2018-01-04T00:00:23.026Z,73.25
2018-01-04T00:02:51.711Z,72.48
2018-01-04T00:05:20.297Z,73.00
2018-01-04T00:07:48.985Z,72.01
2018-01-04T00:10:17.551Z,71.74
2018-01-04T00:12:46.257Z,71.30
2018-01-04T00:15:15.140Z,71.79
2018-01-04T00:17:43.785Z,73.28
2018-01-04T00:20:12.513Z,72.72
2018-01-04T00:22:41.495Z,71.60
2018-01-04T00:25:10.191Z,70.39
2018-01-04T00:27:38.862Z,70.50
2018-01-04T00:30:07.672Z,69.74
2018-01-04T00:32:36.235Z,69.14
2018-01-04T00:35:04.934Z,69.10
2018-01-04T00:37:33.520Z,69.96
2018-01-04T00:40:02.146Z,70.15
2018-01-04T00:42:31.604Z,69.39
2018-01-04T00:45:00.501Z,69.50
2018-01-04T00:47:29.124Z,70.63
2018-01-04T00:49:58.585Z,71.33
2018-01-04T00:52:27.479Z,71.86
2018-01-04T00:54:56.047Z,72.42
2018-01-04T00:57:24.752Z,72.23
2018-01-04T00:59:53.636Z,72.25
2018-01-04T01:02:22.279Z,73.04
2018-01-04T01:04:50.908Z,73.76
2018-01-04T01:07:19.594Z,74.74
2018-01-04T01:09:48.281Z,74.97
2018-01-04T01:12:16.926Z,75.23
2018-01-04T01:14:45.919Z,75.49
2018-01-04T01:17:14.645Z,75.94
2018-01-04T01:19:43.279Z,75.23
2018-01-04T01:22:13.196Z,75.14
2018-01-04T01:24:42.644Z,74.83
2018-01-04T01:27:11.282Z,75.33
2018-01-04T01:29:40.016Z,74.87
2018-01-04T01:32:08.602Z,73.92
2018-01-04T01:34:37.190Z,73.47
2018-01-04T01:37:06.074Z,73.85
2018-01-04T01:39:34.720Z,73.65
2018-01-04T01:42:03.445Z,73.02
2018-01-04T01:44:32.479Z,72.33
2018-01-04T01:47:01.950Z,72.01
2018-01-04T01:49:30.593Z,71.69
2018-01-04T01:51:59.318Z,71.58
2018-01-04T01:54:27.895Z,72.08
2018-01-04T01:56:56.591Z,71.65
2018-01-04T01:59:25.437Z,73.81
2018-01-04T02:01:54.061Z,72.79
2018-01-04T02:04:22.699Z,72.79
2018-01-04T02:06:52.416Z,72.51
2018-01-04T02:09:21.140Z,74.13
2018-01-04T02:11:49.826Z,74.94
2018-01-04T02:14:18.714Z,76.59
2018-01-04T02:16:47.406Z,77.28
2018-01-04T02:19:33.828Z,77.35
2018-01-04T02:22:20.120Z,76.02
2018-01-04T02:28:17.513Z,74.41
2018-01-04T02:31:03.729Z,75.04
2018-01-04T02:33:50.796Z,74.03
2018-01-04T02:36:37.507Z,74.36
2018-01-04T02:39:23.829Z,74.84
2018-01-04T02:42:10.108Z,74.56
2018-01-04T02:44:41.766Z,74.34
2018-01-04T02:47:10.410Z,74.11
2018-01-04T02:49:39.439Z,74.26
2018-01-04T02:52:08.070Z,74.59
2018-01-04T02:54:37.530Z,74.69
2018-01-04T02:57:06.414Z,75.28
2018-01-04T02:59:35.046Z,75.18
2018-01-04T03:02:04.510Z,75.31
2018-01-04T03:04:33.700Z,74.82
2018-01-04T03:07:02.356Z,73.54
2018-01-04T03:09:31.072Z,73.18
2018-01-04T03:12:00.154Z,72.84
2018-01-04T03:14:29.376Z,73.37
2018-01-04T03:16:57.940Z,73.21
2018-01-04T03:19:26.739Z,73.89
2018-01-04T03:22:00.952Z,75.76
2018-01-04T03:24:35.052Z,74.31
2018-01-04T03:27:09.383Z,73.09
2018-01-04T03:29:38.312Z,73.53
2018-01-04T03:32:13.127Z,73.55
2018-01-04T03:34:47.531Z,72.72
2018-01-04T03:37:21.635Z,72.19
2018-01-04T03:42:57.826Z,73.81
2018-01-04T03:45:31.889Z,74.09
2018-01-04T03:48:06.147Z,73.38
2018-01-04T03:50:40.471Z,74.25
2018-01-04T03:53:14.581Z,75.41
2018-01-04T03:55:48.793Z,73.90
2018-01-04T03:58:17.426Z,74.29
2018-01-04T04:00:52.725Z,74.41
2018-01-04T04:03:21.302Z,74.66
2018-01-04T04:05:55.627Z,75.08
2018-01-04T04:11:22.381Z,77.17
2018-01-04T04:13:52.446Z,77.34
2018-01-04T04:16:21.903Z,77.58
2018-01-04T04:18:50.896Z,77.07
2018-01-04T04:21:19.529Z,77.45
2018-01-04T04:23:48.997Z,77.55
2018-01-04T04:26:17.714Z,77.87
2018-01-04T04:28:47.175Z,78.84
2018-01-04T04:31:15.828Z,78.64
2018-01-04T04:33:44.547Z,77.67
2018-01-04T04:36:13.185Z,77.75
2018-01-04T04:38:42.532Z,75.78
2018-01-04T04:41:11.527Z,75.06
2018-01-04T04:43:40.212Z,74.92
2018-01-04T04:46:08.857Z,74.19
2018-01-04T04:48:37.890Z,74.58
2018-01-04T04:51:07.386Z,75.34
2018-01-04T04:53:36.085Z,76.18
2018-01-04T04:56:05.079Z,75.43
2018-01-04T04:58:33.746Z,75.14
2018-01-04T05:01:02.450Z,75.95
2018-01-04T05:03:31.234Z,75.27
2018-01-04T05:05:59.820Z,74.86
2018-01-04T05:08:28.409Z,74.15
2018-01-04T05:10:57.558Z,73.92
2018-01-04T05:13:26.285Z,74.25
2018-01-04T05:15:54.919Z,73.53
2018-01-04T05:27:44.961Z,68.04
2018-01-04T05:30:13.529Z,66.68
2018-01-04T05:32:42.123Z,67.75
2018-01-04T05:35:11.328Z,66.73
2018-01-04T05:37:40.737Z,66.30
2018-01-04T05:40:09.521Z,67.17
2018-01-04T05:42:45.280Z,66.09
2018-01-04T05:45:15.186Z,65.53
2018-01-04T05:47:43.829Z,66.54
2018-01-04T05:50:12.557Z,67.47
2018-01-04T05:52:41.136Z,67.39
2018-01-04T05:55:09.820Z,66.41
2018-01-04T05:57:39.022Z,67.20
2018-01-04T06:00:07.808Z,68.13
2018-01-04T06:02:36.382Z,68.43
2018-01-04T06:05:05.493Z,68.41
2018-01-04T06:07:34.032Z,68.06
2018-01-04T06:10:02.758Z,68.71
2018-01-04T06:12:31.510Z,68.67
2018-01-04T06:15:00.228Z,69.17
2018-01-04T06:17:28.870Z,69.17
2018-01-04T06:19:57.599Z,67.77
2018-01-04T06:22:26.185Z,68.15
2018-01-04T06:24:54.872Z,68.23
2018-01-04T06:27:23.657Z,68.28
2018-01-04T06:29:52.309Z,66.44
2018-01-04T06:32:21.029Z,66.05
2018-01-04T06:34:49.970Z,65.60
2018-01-04T06:37:19.431Z,65.70
2018-01-04T06:39:48.077Z,65.76
2018-01-04T06:42:16.803Z,66.68
2018-01-04T06:44:45.489Z,68.20
2018-01-04T06:47:14.130Z,67.53
2018-01-04T06:49:42.861Z,66.64
2018-01-04T06:52:11.436Z,65.65
2018-01-04T06:54:40.122Z,64.64
2018-01-04T06:57:09.325Z,63.72
2018-01-04T06:59:37.972Z,64.32
2018-01-04T07:02:06.697Z,63.38
2018-01-04T07:04:35.483Z,64.96
2018-01-04T07:07:04.126Z,66.72
2018-01-04T07:09:32.853Z,67.54
2018-01-04T07:12:02.060Z,69.31
2018-01-04T07:14:30.680Z,70.48
2018-01-04T07:17:00.141Z,69.58
2018-01-04T07:19:28.830Z,69.15
2018-01-04T07:21:57.509Z,68.37
2018-01-04T07:24:26.196Z,68.72
2018-01-04T07:26:54.882Z,69.41
2018-01-04T07:29:23.569Z,70.96
2018-01-04T07:31:52.253Z,70.14
2018-01-04T07:34:20.939Z,70.10
2018-01-04T07:36:49.625Z,67.99
2018-01-04T07:39:18.212Z,68.73
2018-01-04T07:41:46.983Z,67.88
2018-01-04T07:44:15.682Z,66.20
2018-01-04T07:46:44.335Z,66.70
2018-01-04T07:49:13.054Z,67.16
2018-01-04T07:51:41.721Z,66.89
2018-01-04T07:54:10.426Z,65.91
2018-01-04T07:56:39.152Z,66.67
2018-01-04T07:59:08.621Z,67.72
2018-01-04T08:01:37.242Z,67.08
2018-01-04T08:04:07.185Z,65.02
2018-01-04T08:06:35.907Z,62.95
2018-01-04T08:09:04.692Z,62.41
2018-01-04T08:11:33.669Z,62.82
2018-01-04T08:14:02.370Z,61.85
2018-01-04T08:16:30.998Z,62.13
2018-01-04T08:19:00.816Z,62.60
2018-01-04T08:21:30.271Z,63.74
2018-01-04T08:23:58.902Z,64.07
2018-01-04T08:26:28.565Z,60.80
2018-01-04T08:28:57.213Z,61.76
2018-01-04T08:31:25.936Z,61.79
2018-01-04T08:33:54.928Z,62.65
2018-01-04T08:36:23.566Z,60.63
2018-01-04T08:38:53.025Z,61.60
2018-01-04T08:41:21.852Z,62.29
2018-01-04T08:43:51.163Z,62.40
2018-01-04T08:46:19.897Z,62.79
2018-01-04T08:48:48.626Z,59.69
2018-01-04T08:51:18.090Z,58.91
2018-01-04T08:53:46.715Z,58.03
2018-01-04T08:56:16.385Z,59.01
2018-01-04T08:58:45.026Z,59.17
2018-01-04T09:01:13.760Z,60.29
2018-01-04T09:03:42.608Z,59.95
2018-01-04T09:06:11.334Z,59.91
2018-01-04T09:08:39.968Z,61.34
2018-01-04T09:11:09.689Z,60.72
2018-01-04T09:13:38.413Z,61.04
2018-01-04T09:16:06.992Z,60.54
2018-01-04T09:18:35.886Z,59.62
2018-01-04T09:21:04.569Z,58.24
2018-01-04T09:23:33.254Z,58.90
2018-01-04T09:26:01.941Z,56.99
2018-01-04T09:28:30.589Z,57.43
2018-01-04T09:30:59.212Z,56.77
2018-01-04T09:33:27.995Z,56.43
2018-01-04T09:35:56.684Z,55.40
2018-01-04T09:38:25.370Z,56.44
2018-01-04T09:40:54.165Z,54.87
2018-01-04T09:43:22.792Z,55.26
2018-01-04T09:45:52.250Z,53.18
2018-01-04T09:48:21.182Z,54.36
2018-01-04T09:50:50.641Z,54.48
2018-01-04T09:53:19.327Z,55.55
2018-01-04T09:55:48.885Z,55.70
2018-01-04T09:58:18.599Z,56.85
2018-01-04T10:00:48.052Z,55.60
2018-01-04T10:03:17.038Z,54.97
2018-01-04T10:05:45.730Z,54.60
2018-01-04T10:08:14.416Z,55.43
2018-01-04T10:10:43.117Z,54.35
2018-01-04T10:13:11.888Z,54.46
2018-01-04T10:15:40.572Z,52.61
2018-01-04T10:18:09.545Z,51.75
2018-01-04T10:20:38.213Z,53.40
2018-01-04T10:23:06.936Z,53.53
2018-01-04T10:25:35.995Z,51.76
2018-01-04T10:28:05.439Z,52.28
2018-01-04T10:30:34.159Z,52.37
2018-01-04T10:33:03.777Z,49.79
2018-01-04T10:35:33.132Z,50.27
2018-01-04T10:38:01.717Z,50.43
2018-01-04T10:40:30.655Z,51.38
2018-01-04T10:43:00.110Z,52.71
2018-01-04T10:45:28.796Z,52.68
2018-01-04T10:47:57.591Z,51.51
2018-01-04T10:50:26.277Z,52.20
2018-01-04T10:52:55.776Z,52.16
2018-01-04T10:55:24.612Z,51.82
2018-01-04T10:57:53.970Z,51.24
2018-01-04T11:00:22.597Z,50.42
2018-01-04T11:02:51.393Z,49.76
2018-01-04T11:05:20.082Z,50.14
2018-01-04T11:07:48.811Z,49.18
2018-01-04T11:10:18.693Z,49.14
2018-01-04T11:12:47.360Z,49.70
2018-01-04T11:15:16.822Z,48.51
2018-01-04T11:17:45.768Z,49.55
2018-01-04T11:20:14.436Z,50.95
2018-01-04T11:22:43.901Z,50.36
2018-01-04T11:25:12.658Z,50.11
2018-01-04T11:27:41.370Z,49.87
2018-01-04T11:30:10.018Z,49.65
2018-01-04T11:32:39.100Z,48.82
2018-01-04T11:35:07.844Z,48.34
2018-01-04T11:37:36.425Z,48.40
2018-01-04T11:40:05.108Z,48.75
2018-01-04T11:42:33.792Z,47.98
2018-01-04T11:45:02.380Z,47.77
2018-01-04T11:47:31.373Z,49.32
2018-01-04T11:50:00.002Z,47.85
2018-01-04T11:52:28.637Z,47.75
2018-01-04T11:54:57.260Z,46.89
2018-01-04T11:57:25.908Z,46.91
2018-01-04T11:59:54.697Z,45.14
2018-01-04T12:02:23.389Z,44.99
2018-01-04T12:04:52.065Z,44.60
2018-01-04T12:07:20.760Z,44.84
2018-01-04T12:09:49.753Z,43.37
2018-01-04T12:12:18.439Z,43.60
2018-01-04T12:14:47.125Z,43.63
2018-01-04T12:17:16.273Z,43.24
2018-01-04T12:19:45.001Z,43.70
2018-01-04T12:22:13.588Z,43.34
2018-01-04T12:24:42.276Z,43.31
2018-01-04T12:27:11.058Z,43.71
2018-01-04T12:29:39.792Z,42.71
2018-01-04T12:32:09.561Z,44.69
2018-01-04T12:34:38.344Z,43.75
2018-01-04T12:37:07.036Z,44.91
2018-01-04T12:39:36.024Z,45.60
2018-01-04T12:42:04.716Z,45.32
2018-01-04T12:44:33.344Z,46.70
2018-01-04T12:47:03.010Z,44.81
2018-01-04T12:49:31.589Z,45.45
2018-01-04T12:52:00.176Z,46.26
2018-01-04T12:54:28.915Z,45.61
2018-01-04T12:56:57.647Z,46.17
2018-01-04T12:59:26.431Z,46.62
2018-01-04T13:01:55.423Z,47.17
2018-01-04T13:04:24.062Z,48.15
2018-01-04T13:06:53.409Z,46.63
2018-01-04T13:09:22.205Z,47.37
2018-01-04T13:11:50.891Z,47.73
2018-01-04T13:14:19.577Z,47.59
2018-01-04T13:16:48.362Z,48.06
2018-01-04T13:19:16.949Z,48.34
2018-01-04T13:21:45.524Z,47.79
2018-01-04T13:24:14.211Z,48.12
2018-01-04T13:26:42.897Z,49.64
2018-01-04T13:29:11.583Z,50.53
2018-01-04T13:31:40.378Z,51.44
2018-01-04T13:34:08.997Z,51.68
2018-01-04T13:36:38.464Z,52.90
2018-01-04T13:39:07.247Z,53.05
2018-01-04T13:41:35.933Z,53.04
2018-01-04T13:44:04.731Z,53.60
2018-01-04T13:46:33.721Z,53.54
2018-01-04T13:49:02.302Z,53.29
2018-01-04T13:51:30.996Z,53.21
2018-01-04T13:54:00.040Z,53.05
2018-01-04T13:56:28.772Z,53.72
2018-01-04T13:58:57.460Z,53.61
2018-01-04T14:01:26.296Z,53.77
2018-01-04T14:03:55.130Z,53.83
2018-01-04T14:06:23.822Z,54.11
2018-01-04T14:08:52.748Z,53.92
2018-01-04T14:11:22.216Z,54.31
2018-01-04T14:13:50.859Z,54.26
2018-01-04T14:16:19.586Z,53.67
2018-01-04T14:18:48.128Z,54.36
2018-01-04T14:21:17.589Z,54.77
2018-01-04T14:23:46.530Z,55.09
2018-01-04T14:26:15.199Z,55.23
2018-01-04T14:28:44.651Z,55.56
2018-01-04T14:31:13.381Z,55.92
2018-01-04T14:33:42.802Z,56.59
2018-01-04T14:36:11.530Z,56.46
2018-01-04T14:38:40.216Z,56.64
2018-01-04T14:41:09.627Z,56.73
2018-01-04T14:43:38.994Z,56.90
2018-01-04T14:46:08.142Z,57.22
2018-01-04T14:48:36.869Z,57.98
2018-01-04T14:51:05.502Z,57.89
2018-01-04T14:53:35.163Z,58.26
2018-01-04T14:56:03.848Z,58.34
2018-01-04T14:58:32.437Z,58.81
2018-01-04T15:01:01.429Z,58.83
2018-01-04T15:03:30.011Z,58.53
2018-01-04T15:05:58.702Z,58.67
2018-01-04T15:08:27.648Z,59.47
2018-01-04T15:10:56.555Z,59.63
2018-01-04T15:13:25.164Z,59.75
2018-01-04T15:15:53.852Z,60.21
2018-01-04T15:18:22.473Z,60.95
2018-01-04T15:20:51.890Z,61.20
2018-01-04T15:23:20.979Z,61.07
2018-01-04T15:25:50.492Z,61.78
2018-01-04T15:28:19.946Z,62.58
2018-01-04T15:30:48.658Z,63.10
2018-01-04T15:33:17.354Z,62.67
2018-01-04T15:35:46.716Z,62.83
2018-01-04T15:38:15.403Z,63.05
2018-01-04T15:40:45.805Z,63.70
2018-01-04T15:43:14.519Z,63.94
2018-01-04T15:45:43.197Z,63.94
2018-01-04T15:48:11.993Z,63.83
2018-01-04T15:50:40.675Z,64.09
2018-01-04T15:53:09.560Z,63.24
2018-01-04T15:55:38.256Z,63.33
2018-01-04T15:58:06.903Z,64.29
2018-01-04T16:00:36.454Z,63.91
2018-01-04T16:03:05.042Z,64.08
2018-01-04T16:05:33.620Z,64.10
2018-01-04T16:08:02.354Z,63.84
2018-01-04T16:10:31.813Z,63.90
2018-01-04T16:13:00.609Z,63.61
2018-01-04T16:15:29.382Z,64.12
2018-01-04T16:17:58.079Z,64.16
2018-01-04T16:20:26.718Z,64.61
2018-01-04T16:22:55.510Z,65.16
2018-01-04T16:25:24.241Z,65.67
2018-01-04T16:27:53.744Z,65.65
2018-01-04T16:30:22.532Z,65.17
2018-01-04T16:32:51.075Z,65.51
2018-01-04T16:35:19.802Z,65.45
2018-01-04T16:37:48.585Z,65.19
2018-01-04T16:40:17.235Z,65.37
2018-01-04T16:42:45.961Z,66.26
2018-01-04T16:45:14.718Z,66.18
2018-01-04T16:47:43.440Z,65.13
2018-01-04T16:50:12.077Z,64.67
2018-01-04T16:52:41.525Z,65.34
2018-01-04T16:55:10.217Z,65.47
2018-01-04T16:57:38.994Z,64.80
2018-01-04T17:00:07.953Z,65.46
2018-01-04T17:02:36.672Z,65.32
2018-01-04T17:05:05.360Z,65.31
2018-01-04T17:07:34.044Z,65.84
2018-01-04T17:10:02.731Z,66.67
2018-01-04T17:12:31.366Z,65.69
2018-01-04T17:15:00.926Z,66.63
2018-01-04T17:17:29.551Z,66.38
2018-01-04T17:19:59.023Z,66.50
2018-01-04T17:22:28.004Z,67.34
2018-01-04T17:24:56.655Z,66.70
2018-01-04T17:27:25.322Z,67.68
2018-01-04T17:29:55.140Z,67.75
2018-01-04T17:32:24.590Z,68.33
2018-01-04T17:34:53.225Z,67.58
2018-01-04T17:37:23.090Z,68.16
2018-01-04T17:39:51.777Z,68.71
2018-01-04T17:42:20.467Z,68.26
2018-01-04T17:44:49.398Z,67.44
2018-01-04T17:47:18.111Z,69.43
2018-01-04T17:49:46.754Z,69.03
2018-01-04T17:52:15.525Z,68.52
2018-01-04T17:54:44.836Z,67.44
2018-01-04T17:57:13.567Z,67.92
2018-01-04T17:59:42.352Z,67.56
2018-01-04T18:02:10.997Z,66.38
2018-01-04T18:04:39.722Z,66.04
2018-01-04T18:07:08.715Z,65.85
2018-01-04T18:09:37.350Z,66.09
2018-01-04T18:12:06.811Z,66.92
2018-01-04T18:14:35.660Z,67.47
2018-01-04T18:17:04.382Z,67.57
2018-01-04T18:19:33.047Z,67.19
2018-01-04T18:22:01.754Z,67.74
2018-01-04T18:24:30.340Z,68.32
2018-01-04T18:26:59.025Z,68.96
2018-01-04T18:29:27.713Z,68.84
2018-01-04T18:31:56.397Z,68.47
2018-01-04T18:34:25.083Z,68.49
2018-01-04T18:36:53.996Z,68.41
2018-01-04T18:39:23.587Z,67.95
2018-01-04T18:41:53.035Z,68.65
2018-01-04T18:44:21.768Z,67.74
2018-01-04T18:46:50.416Z,68.15
2018-01-04T18:49:19.139Z,68.20
2018-01-04T18:51:47.826Z,67.72
2018-01-04T18:54:16.620Z,68.24
2018-01-04T18:56:45.306Z,68.52
2018-01-04T18:59:14.355Z,69.22
2018-01-04T19:01:43.084Z,68.65
2018-01-04T19:04:11.770Z,69.64
2018-01-04T19:06:40.554Z,70.52
2018-01-04T19:09:09.203Z,71.85
2018-01-04T19:11:37.926Z,72.60
2018-01-04T19:14:06.788Z,73.50
2018-01-04T19:16:35.558Z,73.99
2018-01-04T19:19:04.198Z,72.24
2018-01-04T19:21:32.977Z,73.04
2018-01-04T19:24:01.609Z,73.30
2018-01-04T19:26:31.022Z,72.40
2018-01-04T19:29:00.570Z,74.08
2018-01-04T19:31:29.117Z,71.72
2018-01-04T19:33:57.843Z,71.89
2018-01-04T19:36:26.628Z,73.17
2018-01-04T19:38:55.423Z,74.86
2018-01-04T19:41:24.108Z,72.97
2018-01-04T19:43:52.895Z,74.48
2018-01-04T19:46:21.543Z,72.17
2018-01-04T19:48:50.132Z,72.08
2018-01-04T19:51:19.204Z,71.88
2018-01-04T19:53:48.657Z,71.44
2018-01-04T19:56:17.290Z,71.11
2018-01-04T19:58:47.208Z,70.93
2018-01-04T20:01:16.557Z,70.40
2018-01-04T20:03:45.195Z,71.07
2018-01-04T20:06:13.930Z,70.33
2018-01-04T20:08:42.615Z,71.79
2018-01-04T20:11:11.271Z,71.60
2018-01-04T20:13:40.293Z,71.32
2018-01-04T20:16:08.840Z,71.67
2018-01-04T20:18:37.534Z,71.68
2018-01-04T20:21:06.517Z,71.66
2018-01-04T20:23:35.246Z,72.45
2018-01-04T20:26:03.931Z,71.50
2018-01-04T20:28:32.926Z,70.76
2018-01-04T20:31:01.612Z,70.66
2018-01-04T20:33:30.395Z,70.47
2018-01-04T20:36:00.273Z,70.90
2018-01-04T20:38:28.994Z,72.16
2018-01-04T20:40:57.634Z,73.12
2018-01-04T20:43:26.476Z,73.13
2018-01-04T20:45:55.162Z,72.63
2018-01-04T20:48:23.808Z,72.70
2018-01-04T20:50:52.533Z,72.48
2018-01-04T20:53:22.031Z,72.46
2018-01-04T20:55:50.665Z,72.83
2018-01-04T20:58:20.226Z,71.75
2018-01-04T21:00:48.912Z,71.08
2018-01-04T21:03:17.486Z,71.46
2018-01-04T21:05:46.536Z,72.06
2018-01-04T21:08:15.990Z,71.79
2018-01-04T21:10:44.538Z,72.07
2018-01-04T21:13:13.263Z,71.84
2018-01-04T21:15:41.909Z,71.37
2018-01-04T21:18:10.635Z,71.24
2018-01-04T21:20:39.369Z,70.21
2018-01-04T21:23:08.828Z,69.79
2018-01-04T21:25:37.449Z,69.72
2018-01-04T21:28:07.170Z,69.59
2018-01-04T21:30:36.620Z,69.35
2018-01-04T21:33:05.256Z,69.94
2018-01-04T21:35:34.715Z,70.05
2018-01-04T21:38:03.292Z,70.07
2018-01-04T21:40:31.978Z,69.49
2018-01-04T21:43:00.665Z,68.88
2018-01-04T21:45:29.349Z,69.15
2018-01-04T21:47:58.133Z,69.26
2018-01-04T21:50:26.930Z,69.57
2018-01-04T21:52:55.615Z,69.62
2018-01-04T21:55:24.265Z,68.53
2018-01-04T21:57:53.393Z,68.22
2018-01-04T22:00:22.025Z,68.44
2018-01-04T22:02:51.378Z,68.74
2018-01-04T22:05:20.175Z,68.11
2018-01-04T22:07:48.859Z,68.64
2018-01-04T22:10:17.493Z,69.89
2018-01-04T22:12:47.189Z,69.83
2018-01-04T22:15:16.651Z,70.45
2018-01-04T22:17:45.299Z,70.21
2018-01-04T22:20:14.193Z,70.73
2018-01-04T22:22:42.924Z,70.83
2018-01-04T22:25:11.491Z,70.86
2018-01-04T22:27:40.289Z,70.07
2018-01-04T22:30:08.857Z,70.01
2018-01-04T22:32:37.452Z,70.46
2018-01-04T22:35:06.254Z,69.70
2018-01-04T22:37:34.888Z,70.33
2018-01-04T22:40:03.620Z,71.04
2018-01-04T22:42:32.504Z,71.19
2018-01-04T22:45:01.146Z,71.16
2018-01-04T22:47:29.875Z,70.82
2018-01-04T22:49:58.868Z,70.80
2018-01-04T22:52:27.527Z,70.77
2018-01-04T22:54:57.116Z,70.19
2018-01-04T22:57:25.846Z,70.70
2018-01-04T22:59:54.476Z,70.10
2018-01-04T23:02:23.833Z,70.28
2018-01-04T23:04:52.787Z,70.60
2018-01-04T23:07:21.512Z,70.37
2018-01-04T23:09:50.148Z,72.05
2018-01-04T23:12:19.707Z,72.01
2018-01-04T23:21:35.284Z,69.52
2018-01-04T23:24:04.625Z,70.71
2018-01-04T23:26:33.214Z,71.52
2018-01-04T23:29:02.167Z,72.17
2018-01-04T23:31:30.892Z,71.44
2018-01-04T23:33:59.526Z,71.60
2018-01-04T23:36:28.473Z,71.59
2018-01-04T23:38:57.111Z,71.46
2018-01-04T23:41:26.557Z,70.46
2018-01-04T23:43:55.244Z,70.76
2018-01-04T23:46:23.929Z,71.63
2018-01-04T23:48:52.558Z,71.91
2018-01-04T23:51:22.430Z,70.69
2018-01-04T23:53:50.964Z,70.92
2018-01-04T23:56:20.463Z,70.63
2018-01-04T23:58:50.279Z,70.10
